sensor_id;sensor_type;location;lat;lon;timestamp;pressure;altitude;pressure_sealevel;temperature;humidity
36788;BME280;22738;45.560;9.434;2023-04-29T00:01:56;99745.66;;;17.13;100.00
36788;BME280;22738;45.560;9.434;2023-04-29T00:08:38;99737.78;;;17.13;100.00
36788;BME280;22738;45.560;9.434;2023-04-29T00:15:20;99725.94;;;17.08;100.00
36788;BME280;22738;45.560;9.434;2023-04-29T00:22:01;99712.31;;;17.05;100.00
36788;BME280;22738;45.560;9.434;2023-04-29T00:28:42;99694.56;;;16.89;100.00
36788;BME280;22738;45.560;9.434;2023-04-29T00:35:23;99700.06;;;16.86;100.00
36788;BME280;22738;45.560;9.434;2023-04-29T00:42:04;99700.91;;;16.77;100.00
36788;BME280;22738;45.560;9.434;2023-04-29T00:48:45;99692.38;;;16.75;100.00
36788;BME280;22738;45.560;9.434;2023-04-29T00:55:27;99700.91;;;16.77;100.00
36788;BME280;22738;45.560;9.434;2023-04-29T01:02:08;99698.44;;;16.76;100.00
36788;BME280;22738;45.560;9.434;2023-04-29T01:16:17;99706.28;;;16.47;100.00
36788;BME280;22738;45.560;9.434;2023-04-29T01:23:01;99701.72;;;16.49;100.00
36788;BME280;22738;45.560;9.434;2023-04-29T01:29:51;99702.06;;;16.56;100.00
36788;BME280;22738;45.560;9.434;2023-04-29T01:36:55;99687.69;;;16.50;100.00
36788;BME280;22738;45.560;9.434;2023-04-29T01:43:43;99692.66;;;16.43;100.00
36788;BME280;22738;45.560;9.434;2023-04-29T01:50:33;99703.94;;;16.44;100.00
36788;BME280;22738;45.560;9.434;2023-04-29T01:57:24;99693.75;;;16.41;100.00
36788;BME280;22738;45.560;9.434;2023-04-29T02:04:28;99705.03;;;16.41;100.00
36788;BME280;22738;45.560;9.434;2023-04-29T02:11:13;99705.16;;;16.40;100.00
36788;BME280;22738;45.560;9.434;2023-04-29T02:17:56;99690.44;;;16.39;100.00
36788;BME280;22738;45.560;9.434;2023-04-29T02:24:37;99690.88;;;16.34;100.00
36788;BME280;22738;45.560;9.434;2023-04-29T02:31:21;99698.97;;;16.22;100.00
36788;BME280;22738;45.560;9.434;2023-04-29T02:38:02;99695.09;;;16.07;100.00
36788;BME280;22738;45.560;9.434;2023-04-29T02:44:43;99687.94;;;16.09;100.00
36788;BME280;22738;45.560;9.434;2023-04-29T02:51:25;99703.13;;;16.15;100.00
36788;BME280;22738;45.560;9.434;2023-04-29T02:58:06;99682.72;;;16.09;100.00
36788;BME280;22738;45.560;9.434;2023-04-29T03:04:47;99692.63;;;16.05;100.00
36788;BME280;22738;45.560;9.434;2023-04-29T03:11:29;99681.91;;;15.99;100.00
36788;BME280;22738;45.560;9.434;2023-04-29T03:18:10;99695.91;;;15.98;100.00
36788;BME280;22738;45.560;9.434;2023-04-29T03:24:51;99689.31;;;15.94;100.00
36788;BME280;22738;45.560;9.434;2023-04-29T03:31:34;99687.38;;;15.96;100.00
36788;BME280;22738;45.560;9.434;2023-04-29T03:38:15;99674.75;;;16.01;100.00
36788;BME280;22738;45.560;9.434;2023-04-29T03:44:57;99673.06;;;16.00;100.00
36788;BME280;22738;45.560;9.434;2023-04-29T03:51:38;99670.63;;;15.98;100.00
36788;BME280;22738;45.560;9.434;2023-04-29T03:58:25;99653.81;;;16.01;100.00
36788;BME280;22738;45.560;9.434;2023-04-29T04:05:06;99654.50;;;16.03;100.00
36788;BME280;22738;45.560;9.434;2023-04-29T04:11:48;99662.63;;;16.00;100.00
36788;BME280;22738;45.560;9.434;2023-04-29T04:18:31;99674.44;;;16.04;100.00
36788;BME280;22738;45.560;9.434;2023-04-29T04:25:12;99676.91;;;15.86;100.00
36788;BME280;22738;45.560;9.434;2023-04-29T04:31:54;99667.69;;;15.82;100.00
36788;BME280;22738;45.560;9.434;2023-04-29T04:38:36;99668.75;;;15.70;100.00
36788;BME280;22738;45.560;9.434;2023-04-29T04:45:22;99681.00;;;15.60;100.00
36788;BME280;22738;45.560;9.434;2023-04-29T04:52:05;99691.41;;;15.50;100.00
36788;BME280;22738;45.560;9.434;2023-04-29T04:58:46;99697.22;;;15.63;100.00
36788;BME280;22738;45.560;9.434;2023-04-29T05:05:28;99705.25;;;15.91;100.00
36788;BME280;22738;45.560;9.434;2023-04-29T05:12:10;99710.25;;;16.03;100.00
36788;BME280;22738;45.560;9.434;2023-04-29T05:18:51;99729.66;;;16.20;100.00
36788;BME280;22738;45.560;9.434;2023-04-29T05:25:33;99721.28;;;16.45;100.00
36788;BME280;22738;45.560;9.434;2023-04-29T05:32:16;99728.50;;;16.62;100.00
36788;BME280;22738;45.560;9.434;2023-04-29T05:38:58;99730.97;;;16.83;100.00
36788;BME280;22738;45.560;9.434;2023-04-29T05:45:39;99733.84;;;16.89;100.00
36788;BME280;22738;45.560;9.434;2023-04-29T05:52:21;99738.06;;;17.09;100.00
36788;BME280;22738;45.560;9.434;2023-04-29T05:59:04;99750.25;;;17.38;100.00
36788;BME280;22738;45.560;9.434;2023-04-29T06:05:45;99763.66;;;17.35;100.00
36788;BME280;22738;45.560;9.434;2023-04-29T06:12:44;99757.59;;;17.25;100.00
36788;BME280;22738;45.560;9.434;2023-04-29T06:19:27;99754.88;;;17.17;100.00
36788;BME280;22738;45.560;9.434;2023-04-29T06:26:08;99759.44;;;17.15;100.00
36788;BME280;22738;45.560;9.434;2023-04-29T06:32:49;99754.06;;;17.06;100.00
36788;BME280;22738;45.560;9.434;2023-04-29T06:39:30;99760.13;;;16.97;100.00
36788;BME280;22738;45.560;9.434;2023-04-29T06:46:37;99764.56;;;16.87;100.00
36788;BME280;22738;45.560;9.434;2023-04-29T06:53:45;99784.69;;;16.77;100.00
36788;BME280;22738;45.560;9.434;2023-04-29T07:00:26;99789.78;;;16.79;100.00
36788;BME280;22738;45.560;9.434;2023-04-29T07:07:09;99808.66;;;16.82;100.00
36788;BME280;22738;45.560;9.434;2023-04-29T07:13:51;99810.59;;;16.80;100.00
36788;BME280;22738;45.560;9.434;2023-04-29T07:20:35;99815.84;;;16.80;100.00
36788;BME280;22738;45.560;9.434;2023-04-29T07:27:18;99809.63;;;16.81;100.00
36788;BME280;22738;45.560;9.434;2023-04-29T07:33:59;99806.03;;;16.92;100.00
36788;BME280;22738;45.560;9.434;2023-04-29T07:40:40;99808.09;;;17.07;100.00
36788;BME280;22738;45.560;9.434;2023-04-29T07:47:22;99811.66;;;17.26;100.00
36788;BME280;22738;45.560;9.434;2023-04-29T07:54:04;99810.81;;;17.25;100.00
36788;BME280;22738;45.560;9.434;2023-04-29T08:00:45;99800.16;;;17.46;100.00
36788;BME280;22738;45.560;9.434;2023-04-29T08:07:28;99802.91;;;17.63;100.00
36788;BME280;22738;45.560;9.434;2023-04-29T08:14:09;99801.59;;;17.77;100.00
36788;BME280;22738;45.560;9.434;2023-04-29T08:20:50;99815.81;;;18.11;100.00
36788;BME280;22738;45.560;9.434;2023-04-29T08:27:31;99813.44;;;18.45;100.00
36788;BME280;22738;45.560;9.434;2023-04-29T08:34:12;99811.41;;;18.57;100.00
36788;BME280;22738;45.560;9.434;2023-04-29T08:40:53;99803.31;;;18.68;100.00
36788;BME280;22738;45.560;9.434;2023-04-29T08:47:35;99791.06;;;19.11;100.00
36788;BME280;22738;45.560;9.434;2023-04-29T08:54:17;99788.97;;;20.42;100.00
36788;BME280;22738;45.560;9.434;2023-04-29T09:00:58;99775.44;;;20.45;100.00
36788;BME280;22738;45.560;9.434;2023-04-29T09:07:40;99778.63;;;20.07;100.00
36788;BME280;22738;45.560;9.434;2023-04-29T09:14:22;99778.28;;;20.84;100.00
36788;BME280;22738;45.560;9.434;2023-04-29T09:27:55;99758.72;;;21.18;100.00
36788;BME280;22738;45.560;9.434;2023-04-29T09:34:36;99758.69;;;21.26;100.00
36788;BME280;22738;45.560;9.434;2023-04-29T09:41:20;99764.91;;;21.50;100.00
36788;BME280;22738;45.560;9.434;2023-04-29T09:48:05;99754.22;;;21.90;100.00
36788;BME280;22738;45.560;9.434;2023-04-29T09:54:48;99748.66;;;22.92;100.00
36788;BME280;22738;45.560;9.434;2023-04-29T10:01:29;99752.78;;;22.72;100.00
36788;BME280;22738;45.560;9.434;2023-04-29T10:08:11;99741.81;;;22.29;100.00
36788;BME280;22738;45.560;9.434;2023-04-29T10:21:51;99734.91;;;22.51;100.00
36788;BME280;22738;45.560;9.434;2023-04-29T10:28:34;99727.97;;;22.27;100.00
36788;BME280;22738;45.560;9.434;2023-04-29T10:35:18;99723.50;;;21.97;100.00
36788;BME280;22738;45.560;9.434;2023-04-29T10:42:01;99715.03;;;21.71;100.00
36788;BME280;22738;45.560;9.434;2023-04-29T10:48:45;99701.16;;;22.98;100.00
36788;BME280;22738;45.560;9.434;2023-04-29T10:55:27;99682.94;;;23.47;100.00
36788;BME280;22738;45.560;9.434;2023-04-29T11:02:09;99674.19;;;23.32;100.00
36788;BME280;22738;45.560;9.434;2023-04-29T11:09:03;99665.22;;;23.04;100.00
36788;BME280;22738;45.560;9.434;2023-04-29T11:15:45;99643.41;;;23.31;100.00
36788;BME280;22738;45.560;9.434;2023-04-29T11:22:27;99647.03;;;24.31;100.00
36788;BME280;22738;45.560;9.434;2023-04-29T11:29:10;99632.03;;;24.38;100.00
36788;BME280;22738;45.560;9.434;2023-04-29T11:35:52;99622.59;;;25.46;100.00
36788;BME280;22738;45.560;9.434;2023-04-29T11:42:34;99626.28;;;24.83;100.00
36788;BME280;22738;45.560;9.434;2023-04-29T11:49:19;99632.84;;;24.38;100.00
36788;BME280;22738;45.560;9.434;2023-04-29T11:56:00;99632.25;;;24.64;100.00
36788;BME280;22738;45.560;9.434;2023-04-29T12:02:44;99618.59;;;24.95;100.00
36788;BME280;22738;45.560;9.434;2023-04-29T12:09:26;99618.97;;;24.36;100.00
36788;BME280;22738;45.560;9.434;2023-04-29T12:16:07;99609.59;;;23.77;100.00
36788;BME280;22738;45.560;9.434;2023-04-29T12:22:48;99607.78;;;23.77;100.00
36788;BME280;22738;45.560;9.434;2023-04-29T12:29:34;99597.63;;;24.17;100.00
36788;BME280;22738;45.560;9.434;2023-04-29T12:36:18;99607.44;;;24.23;100.00
36788;BME280;22738;45.560;9.434;2023-04-29T12:43:06;99598.91;;;24.27;100.00
36788;BME280;22738;45.560;9.434;2023-04-29T12:49:48;99598.34;;;24.10;100.00
36788;BME280;22738;45.560;9.434;2023-04-29T12:56:29;99600.22;;;23.95;100.00
36788;BME280;22738;45.560;9.434;2023-04-29T13:03:11;99601.88;;;24.39;100.00
36788;BME280;22738;45.560;9.434;2023-04-29T13:09:52;99605.25;;;23.90;100.00
36788;BME280;22738;45.560;9.434;2023-04-29T13:16:34;99598.38;;;23.75;100.00
36788;BME280;22738;45.560;9.434;2023-04-29T13:23:16;99591.44;;;24.09;100.00
36788;BME280;22738;45.560;9.434;2023-04-29T13:29:57;99587.50;;;23.84;100.00
36788;BME280;22738;45.560;9.434;2023-04-29T13:36:38;99571.16;;;23.81;100.00
36788;BME280;22738;45.560;9.434;2023-04-29T13:43:19;99569.47;;;24.16;100.00
36788;BME280;22738;45.560;9.434;2023-04-29T13:50:00;99568.28;;;24.18;100.00
36788;BME280;22738;45.560;9.434;2023-04-29T13:56:42;99550.31;;;23.71;100.00
36788;BME280;22738;45.560;9.434;2023-04-29T14:03:23;99548.13;;;23.24;100.00
36788;BME280;22738;45.560;9.434;2023-04-29T14:10:05;99542.94;;;23.16;100.00
36788;BME280;22738;45.560;9.434;2023-04-29T14:16:46;99539.19;;;23.25;100.00
36788;BME280;22738;45.560;9.434;2023-04-29T14:23:27;99542.56;;;23.34;100.00
36788;BME280;22738;45.560;9.434;2023-04-29T14:30:10;99536.28;;;23.06;100.00
36788;BME280;22738;45.560;9.434;2023-04-29T14:36:51;99536.53;;;23.40;100.00
36788;BME280;22738;45.560;9.434;2023-04-29T14:43:32;99532.53;;;23.44;100.00
36788;BME280;22738;45.560;9.434;2023-04-29T14:50:13;99530.50;;;23.46;100.00
36788;BME280;22738;45.560;9.434;2023-04-29T14:56:54;99535.88;;;23.53;100.00
36788;BME280;22738;45.560;9.434;2023-04-29T15:03:35;99541.53;;;23.50;100.00
36788;BME280;22738;45.560;9.434;2023-04-29T15:10:17;99535.97;;;23.45;100.00
36788;BME280;22738;45.560;9.434;2023-04-29T15:16:58;99538.56;;;23.09;100.00
36788;BME280;22738;45.560;9.434;2023-04-29T15:23:39;99537.63;;;23.31;100.00
36788;BME280;22738;45.560;9.434;2023-04-29T15:30:20;99542.91;;;23.31;100.00
36788;BME280;22738;45.560;9.434;2023-04-29T15:37:02;99528.03;;;22.94;100.00
36788;BME280;22738;45.560;9.434;2023-04-29T15:43:43;99533.41;;;23.01;100.00
36788;BME280;22738;45.560;9.434;2023-04-29T15:50:25;99531.47;;;22.95;100.00
36788;BME280;22738;45.560;9.434;2023-04-29T15:57:06;99524.16;;;23.26;100.00
36788;BME280;22738;45.560;9.434;2023-04-29T16:03:47;99529.56;;;23.03;100.00
36788;BME280;22738;45.560;9.434;2023-04-29T16:10:28;99523.75;;;23.29;100.00
36788;BME280;22738;45.560;9.434;2023-04-29T16:17:09;99520.34;;;23.14;100.00
36788;BME280;22738;45.560;9.434;2023-04-29T16:23:51;99519.22;;;23.23;100.00
36788;BME280;22738;45.560;9.434;2023-04-29T16:30:33;99528.16;;;23.22;100.00
36788;BME280;22738;45.560;9.434;2023-04-29T16:37:14;99514.56;;;22.60;100.00
36788;BME280;22738;45.560;9.434;2023-04-29T16:43:56;99512.84;;;22.44;100.00
36788;BME280;22738;45.560;9.434;2023-04-29T16:50:37;99518.97;;;22.45;100.00
36788;BME280;22738;45.560;9.434;2023-04-29T16:57:18;99522.69;;;22.21;100.00
36788;BME280;22738;45.560;9.434;2023-04-29T17:04:01;99513.25;;;22.04;100.00
36788;BME280;22738;45.560;9.434;2023-04-29T17:10:42;99512.06;;;21.92;100.00
36788;BME280;22738;45.560;9.434;2023-04-29T17:17:23;99512.84;;;21.70;100.00
36788;BME280;22738;45.560;9.434;2023-04-29T17:24:04;99521.25;;;21.51;100.00
36788;BME280;22738;45.560;9.434;2023-04-29T17:30:45;99513.34;;;21.51;100.00
36788;BME280;22738;45.560;9.434;2023-04-29T17:37:26;99525.69;;;21.19;100.00
36788;BME280;22738;45.560;9.434;2023-04-29T17:44:10;99522.41;;;21.17;100.00
36788;BME280;22738;45.560;9.434;2023-04-29T17:50:51;99533.19;;;21.08;100.00
36788;BME280;22738;45.560;9.434;2023-04-29T17:57:32;99525.84;;;20.87;100.00
36788;BME280;22738;45.560;9.434;2023-04-29T18:04:13;99533.63;;;20.73;100.00
36788;BME280;22738;45.560;9.434;2023-04-29T18:10:54;99536.13;;;20.58;100.00
36788;BME280;22738;45.560;9.434;2023-04-29T18:17:35;99529.91;;;20.43;100.00
36788;BME280;22738;45.560;9.434;2023-04-29T18:24:16;99529.09;;;20.18;100.00
36788;BME280;22738;45.560;9.434;2023-04-29T18:30:57;99530.94;;;19.93;100.00
36788;BME280;22738;45.560;9.434;2023-04-29T18:37:38;99528.78;;;19.73;100.00
36788;BME280;22738;45.560;9.434;2023-04-29T18:44:22;99533.84;;;19.58;100.00
36788;BME280;22738;45.560;9.434;2023-04-29T18:51:03;99537.38;;;19.25;100.00
36788;BME280;22738;45.560;9.434;2023-04-29T18:57:45;99536.34;;;19.10;100.00
36788;BME280;22738;45.560;9.434;2023-04-29T19:04:26;99541.59;;;19.10;100.00
36788;BME280;22738;45.560;9.434;2023-04-29T19:11:07;99548.53;;;19.19;100.00
36788;BME280;22738;45.560;9.434;2023-04-29T19:17:49;99559.19;;;19.17;100.00
36788;BME280;22738;45.560;9.434;2023-04-29T19:24:29;99572.41;;;19.00;100.00
36788;BME280;22738;45.560;9.434;2023-04-29T19:31:12;99586.59;;;18.81;100.00
36788;BME280;22738;45.560;9.434;2023-04-29T19:37:53;99585.94;;;18.53;100.00
36788;BME280;22738;45.560;9.434;2023-04-29T19:44:34;99584.81;;;18.38;100.00
36788;BME280;22738;45.560;9.434;2023-04-29T19:51:17;99599.44;;;18.41;100.00
36788;BME280;22738;45.560;9.434;2023-04-29T19:57:59;99612.88;;;18.56;100.00
36788;BME280;22738;45.560;9.434;2023-04-29T20:04:40;99625.13;;;18.73;100.00
36788;BME280;22738;45.560;9.434;2023-04-29T20:11:21;99618.19;;;18.89;100.00
36788;BME280;22738;45.560;9.434;2023-04-29T20:18:03;99634.13;;;18.96;100.00
36788;BME280;22738;45.560;9.434;2023-04-29T20:24:44;99629.91;;;19.03;100.00
36788;BME280;22738;45.560;9.434;2023-04-29T20:31:25;99645.00;;;19.01;100.00
36788;BME280;22738;45.560;9.434;2023-04-29T20:38:07;99647.31;;;19.04;100.00
36788;BME280;22738;45.560;9.434;2023-04-29T20:44:48;99663.72;;;19.06;100.00
36788;BME280;22738;45.560;9.434;2023-04-29T20:51:30;99663.69;;;18.98;100.00
36788;BME280;22738;45.560;9.434;2023-04-29T20:58:13;99669.25;;;18.95;100.00
36788;BME280;22738;45.560;9.434;2023-04-29T21:04:56;99670.72;;;18.89;100.00
36788;BME280;22738;45.560;9.434;2023-04-29T21:11:37;99687.22;;;18.82;100.00
36788;BME280;22738;45.560;9.434;2023-04-29T21:18:18;99688.94;;;18.91;100.00
36788;BME280;22738;45.560;9.434;2023-04-29T21:24:59;99704.13;;;18.79;100.00
36788;BME280;22738;45.560;9.434;2023-04-29T21:31:40;99708.31;;;18.90;100.00
36788;BME280;22738;45.560;9.434;2023-04-29T21:38:21;99720.53;;;18.81;100.00
36788;BME280;22738;45.560;9.434;2023-04-29T21:45:02;99721.66;;;18.79;100.00
36788;BME280;22738;45.560;9.434;2023-04-29T21:51:44;99700.69;;;18.61;100.00
36788;BME280;22738;45.560;9.434;2023-04-29T21:58:25;99722.91;;;18.67;100.00
36788;BME280;22738;45.560;9.434;2023-04-29T22:05:06;99722.53;;;18.62;100.00
36788;BME280;22738;45.560;9.434;2023-04-29T22:11:47;99721.78;;;18.51;100.00
36788;BME280;22738;45.560;9.434;2023-04-29T22:18:29;99722.50;;;18.44;100.00
36788;BME280;22738;45.560;9.434;2023-04-29T22:25:10;99729.47;;;18.35;100.00
36788;BME280;22738;45.560;9.434;2023-04-29T22:31:51;99724.97;;;18.28;100.00
36788;BME280;22738;45.560;9.434;2023-04-29T22:38:32;99733.88;;;18.17;100.00
36788;BME280;22738;45.560;9.434;2023-04-29T22:45:14;99738.16;;;18.18;100.00
36788;BME280;22738;45.560;9.434;2023-04-29T22:51:55;99745.59;;;18.23;100.00
36788;BME280;22738;45.560;9.434;2023-04-29T22:58:36;99742.53;;;18.27;100.00
36788;BME280;22738;45.560;9.434;2023-04-29T23:05:19;99739.97;;;18.18;100.00
36788;BME280;22738;45.560;9.434;2023-04-29T23:12:00;99735.69;;;18.17;100.00
36788;BME280;22738;45.560;9.434;2023-04-29T23:18:42;99726.38;;;18.22;100.00
36788;BME280;22738;45.560;9.434;2023-04-29T23:25:23;99735.81;;;18.15;100.00
36788;BME280;22738;45.560;9.434;2023-04-29T23:32:04;99743.47;;;18.09;100.00
36788;BME280;22738;45.560;9.434;2023-04-29T23:38:45;99742.19;;;18.13;100.00
36788;BME280;22738;45.560;9.434;2023-04-29T23:45:26;99747.97;;;18.16;100.00
36788;BME280;22738;45.560;9.434;2023-04-29T23:52:07;99745.38;;;18.16;100.00
36788;BME280;22738;45.560;9.434;2023-04-29T23:58:49;99736.59;;;18.25;100.00
